sensor_id;sensor_type;location;lat;lon;timestamp;P1;durP1;ratioP1;P2;durP2;ratioP2
52888;SDS011;41413;52.770;6.892;2022-09-20T00:01:07;8.65;;;2.80;;
52888;SDS011;41413;52.770;6.892;2022-09-20T00:03:44;9.38;;;2.30;;
52888;SDS011;41413;52.770;6.892;2022-09-20T00:06:12;4.07;;;2.10;;
52888;SDS011;41413;52.770;6.892;2022-09-20T00:08:41;8.05;;;3.40;;
52888;SDS011;41413;52.770;6.892;2022-09-20T00:11:09;7.50;;;2.92;;
52888;SDS011;41413;52.770;6.892;2022-09-20T00:13:45;9.93;;;3.00;;
52888;SDS011;41413;52.770;6.892;2022-09-20T00:16:14;5.40;;;2.28;;
52888;SDS011;41413;52.770;6.892;2022-09-20T00:18:46;5.18;;;2.70;;
52888;SDS011;41413;52.770;6.892;2022-09-20T00:21:18;6.28;;;2.60;;
52888;SDS011;41413;52.770;6.892;2022-09-20T00:23:47;8.45;;;2.83;;
52888;SDS011;41413;52.770;6.892;2022-09-20T00:26:14;9.05;;;2.83;;
52888;SDS011;41413;52.770;6.892;2022-09-20T00:28:42;12.45;;;3.63;;
52888;SDS011;41413;52.770;6.892;2022-09-20T00:31:10;5.97;;;2.53;;
52888;SDS011;41413;52.770;6.892;2022-09-20T00:33:37;5.30;;;2.42;;
52888;SDS011;41413;52.770;6.892;2022-09-20T00:36:22;4.78;;;2.15;;
52888;SDS011;41413;52.770;6.892;2022-09-20T00:38:53;5.43;;;2.40;;
52888;SDS011;41413;52.770;6.892;2022-09-20T00:41:20;10.60;;;2.95;;
52888;SDS011;41413;52.770;6.892;2022-09-20T00:43:47;9.05;;;2.90;;
52888;SDS011;41413;52.770;6.892;2022-09-20T00:51:38;7.40;;;2.78;;
52888;SDS011;41413;52.770;6.892;2022-09-20T00:54:08;8.25;;;3.53;;
52888;SDS011;41413;52.770;6.892;2022-09-20T00:56:43;7.40;;;2.30;;
52888;SDS011;41413;52.770;6.892;2022-09-20T01:02:15;7.72;;;3.20;;
52888;SDS011;41413;52.770;6.892;2022-09-20T01:04:46;8.00;;;2.90;;
52888;SDS011;41413;52.770;6.892;2022-09-20T01:07:14;7.88;;;2.72;;
52888;SDS011;41413;52.770;6.892;2022-09-20T01:09:43;7.82;;;2.55;;
52888;SDS011;41413;52.770;6.892;2022-09-20T01:12:12;8.38;;;3.08;;
52888;SDS011;41413;52.770;6.892;2022-09-20T01:14:43;8.77;;;2.67;;
52888;SDS011;41413;52.770;6.892;2022-09-20T01:17:12;4.18;;;2.47;;
52888;SDS011;41413;52.770;6.892;2022-09-20T01:19:48;8.82;;;3.25;;
52888;SDS011;41413;52.770;6.892;2022-09-20T01:22:26;4.80;;;2.30;;
52888;SDS011;41413;52.770;6.892;2022-09-20T01:25:13;7.35;;;2.83;;
52888;SDS011;41413;52.770;6.892;2022-09-20T01:27:55;8.27;;;2.55;;
52888;SDS011;41413;52.770;6.892;2022-09-20T01:30:29;6.22;;;2.35;;
52888;SDS011;41413;52.770;6.892;2022-09-20T01:33:12;5.47;;;2.67;;
52888;SDS011;41413;52.770;6.892;2022-09-20T01:35:53;5.68;;;2.60;;
52888;SDS011;41413;52.770;6.892;2022-09-20T01:43:35;8.95;;;2.70;;
52888;SDS011;41413;52.770;6.892;2022-09-20T01:49:19;6.10;;;2.22;;
52888;SDS011;41413;52.770;6.892;2022-09-20T01:57:32;7.38;;;2.45;;
52888;SDS011;41413;52.770;6.892;2022-09-20T02:00:25;9.45;;;2.88;;
52888;SDS011;41413;52.770;6.892;2022-09-20T02:03:09;8.77;;;2.47;;
52888;SDS011;41413;52.770;6.892;2022-09-20T02:08:55;7.47;;;2.75;;
52888;SDS011;41413;52.770;6.892;2022-09-20T02:14:46;7.85;;;2.58;;
52888;SDS011;41413;52.770;6.892;2022-09-20T02:17:26;6.50;;;2.30;;
52888;SDS011;41413;52.770;6.892;2022-09-20T02:25:48;6.55;;;2.15;;
52888;SDS011;41413;52.770;6.892;2022-09-20T02:29:03;6.43;;;2.42;;
52888;SDS011;41413;52.770;6.892;2022-09-20T02:51:38;7.18;;;2.90;;
52888;SDS011;41413;52.770;6.892;2022-09-20T02:57:01;6.38;;;1.70;;
52888;SDS011;41413;52.770;6.892;2022-09-20T02:59:53;7.75;;;2.30;;
52888;SDS011;41413;52.770;6.892;2022-09-20T03:02:30;5.65;;;2.55;;
52888;SDS011;41413;52.770;6.892;2022-09-20T03:05:07;6.07;;;2.97;;
52888;SDS011;41413;52.770;6.892;2022-09-20T03:07:59;4.07;;;2.35;;
52888;SDS011;41413;52.770;6.892;2022-09-20T03:11:08;5.70;;;2.40;;
52888;SDS011;41413;52.770;6.892;2022-09-20T03:22:15;5.63;;;2.70;;
52888;SDS011;41413;52.770;6.892;2022-09-20T03:27:31;3.75;;;2.17;;
52888;SDS011;41413;52.770;6.892;2022-09-20T03:43:47;6.47;;;2.23;;
52888;SDS011;41413;52.770;6.892;2022-09-20T03:52:32;4.45;;;2.30;;
52888;SDS011;41413;52.770;6.892;2022-09-20T04:01:12;9.60;;;2.90;;
52888;SDS011;41413;52.770;6.892;2022-09-20T04:07:08;6.93;;;2.45;;
52888;SDS011;41413;52.770;6.892;2022-09-20T04:18:37;5.97;;;2.78;;
52888;SDS011;41413;52.770;6.892;2022-09-20T04:24:14;4.40;;;2.35;;
52888;SDS011;41413;52.770;6.892;2022-09-20T04:26:49;7.75;;;2.25;;
52888;SDS011;41413;52.770;6.892;2022-09-20T04:31:57;6.28;;;2.22;;
52888;SDS011;41413;52.770;6.892;2022-09-20T04:34:41;8.13;;;2.55;;
52888;SDS011;41413;52.770;6.892;2022-09-20T04:37:35;5.68;;;2.75;;
52888;SDS011;41413;52.770;6.892;2022-09-20T04:45:46;6.47;;;2.75;;
52888;SDS011;41413;52.770;6.892;2022-09-20T04:53:59;4.75;;;3.20;;
52888;SDS011;41413;52.770;6.892;2022-09-20T04:59:40;4.43;;;2.40;;
52888;SDS011;41413;52.770;6.892;2022-09-20T05:19:05;5.20;;;2.13;;
52888;SDS011;41413;52.770;6.892;2022-09-20T05:35:41;8.13;;;3.22;;
52888;SDS011;41413;52.770;6.892;2022-09-20T05:41:17;8.05;;;3.03;;
52888;SDS011;41413;52.770;6.892;2022-09-20T05:55:23;4.50;;;2.30;;
52888;SDS011;41413;52.770;6.892;2022-09-20T06:00:45;8.20;;;3.00;;
52888;SDS011;41413;52.770;6.892;2022-09-20T06:06:12;10.85;;;3.40;;
52888;SDS011;41413;52.770;6.892;2022-09-20T06:08:59;5.47;;;2.22;;
52888;SDS011;41413;52.770;6.892;2022-09-20T06:14:54;4.78;;;2.75;;
52888;SDS011;41413;52.770;6.892;2022-09-20T06:17:32;2.55;;;1.48;;
52888;SDS011;41413;52.770;6.892;2022-09-20T06:20:09;4.43;;;2.00;;
52888;SDS011;41413;52.770;6.892;2022-09-20T06:22:47;10.98;;;2.55;;
52888;SDS011;41413;52.770;6.892;2022-09-20T06:25:18;5.72;;;2.58;;
52888;SDS011;41413;52.770;6.892;2022-09-20T06:28:00;8.25;;;2.10;;
52888;SDS011;41413;52.770;6.892;2022-09-20T06:30:47;4.88;;;2.25;;
52888;SDS011;41413;52.770;6.892;2022-09-20T06:33:15;6.15;;;2.03;;
52888;SDS011;41413;52.770;6.892;2022-09-20T06:35:45;10.77;;;1.92;;
52888;SDS011;41413;52.770;6.892;2022-09-20T06:42:09;6.15;;;2.38;;
52888;SDS011;41413;52.770;6.892;2022-09-20T06:44:36;2.72;;;1.50;;
52888;SDS011;41413;52.770;6.892;2022-09-20T06:47:11;5.45;;;1.73;;
52888;SDS011;41413;52.770;6.892;2022-09-20T06:49:40;4.28;;;1.98;;
52888;SDS011;41413;52.770;6.892;2022-09-20T06:52:09;7.57;;;2.38;;
52888;SDS011;41413;52.770;6.892;2022-09-20T06:54:41;4.63;;;1.92;;
52888;SDS011;41413;52.770;6.892;2022-09-20T06:57:11;2.65;;;1.80;;
52888;SDS011;41413;52.770;6.892;2022-09-20T06:59:41;8.95;;;1.92;;
52888;SDS011;41413;52.770;6.892;2022-09-20T07:02:07;9.27;;;2.60;;
52888;SDS011;41413;52.770;6.892;2022-09-20T07:04:34;6.20;;;1.85;;
52888;SDS011;41413;52.770;6.892;2022-09-20T07:07:02;2.40;;;1.63;;
52888;SDS011;41413;52.770;6.892;2022-09-20T07:09:34;4.45;;;1.58;;
52888;SDS011;41413;52.770;6.892;2022-09-20T07:12:01;2.78;;;2.05;;
52888;SDS011;41413;52.770;6.892;2022-09-20T07:14:28;6.68;;;1.50;;
52888;SDS011;41413;52.770;6.892;2022-09-20T07:16:54;8.98;;;2.50;;
52888;SDS011;41413;52.770;6.892;2022-09-20T07:19:21;4.18;;;2.40;;
52888;SDS011;41413;52.770;6.892;2022-09-20T07:21:48;5.10;;;2.35;;
52888;SDS011;41413;52.770;6.892;2022-09-20T07:24:14;3.28;;;1.88;;
52888;SDS011;41413;52.770;6.892;2022-09-20T07:26:53;8.15;;;2.08;;
52888;SDS011;41413;52.770;6.892;2022-09-20T07:29:30;4.97;;;1.77;;
52888;SDS011;41413;52.770;6.892;2022-09-20T07:31:56;7.78;;;2.63;;
52888;SDS011;41413;52.770;6.892;2022-09-20T07:34:23;4.40;;;2.60;;
52888;SDS011;41413;52.770;6.892;2022-09-20T07:36:50;3.97;;;2.30;;
52888;SDS011;41413;52.770;6.892;2022-09-20T07:39:17;4.78;;;2.13;;
52888;SDS011;41413;52.770;6.892;2022-09-20T07:41:44;9.63;;;2.60;;
52888;SDS011;41413;52.770;6.892;2022-09-20T07:44:13;3.88;;;2.53;;
52888;SDS011;41413;52.770;6.892;2022-09-20T07:46:47;3.65;;;2.20;;
52888;SDS011;41413;52.770;6.892;2022-09-20T07:49:14;4.85;;;2.40;;
52888;SDS011;41413;52.770;6.892;2022-09-20T07:51:41;3.15;;;1.80;;
52888;SDS011;41413;52.770;6.892;2022-09-20T07:54:08;5.13;;;2.03;;
52888;SDS011;41413;52.770;6.892;2022-09-20T07:56:35;6.07;;;2.10;;
52888;SDS011;41413;52.770;6.892;2022-09-20T07:59:01;6.38;;;3.17;;
52888;SDS011;41413;52.770;6.892;2022-09-20T08:01:28;5.07;;;2.40;;
52888;SDS011;41413;52.770;6.892;2022-09-20T08:03:55;4.10;;;2.30;;
52888;SDS011;41413;52.770;6.892;2022-09-20T08:06:22;9.82;;;2.33;;
52888;SDS011;41413;52.770;6.892;2022-09-20T08:08:49;6.28;;;2.15;;
52888;SDS011;41413;52.770;6.892;2022-09-20T08:11:17;4.30;;;1.95;;
52888;SDS011;41413;52.770;6.892;2022-09-20T08:13:53;5.07;;;2.47;;
52888;SDS011;41413;52.770;6.892;2022-09-20T08:16:35;4.68;;;2.85;;
52888;SDS011;41413;52.770;6.892;2022-09-20T08:19:04;3.40;;;2.45;;
52888;SDS011;41413;52.770;6.892;2022-09-20T08:21:32;3.97;;;1.85;;
52888;SDS011;41413;52.770;6.892;2022-09-20T08:24:02;5.75;;;1.80;;
52888;SDS011;41413;52.770;6.892;2022-09-20T08:26:29;5.00;;;1.65;;
52888;SDS011;41413;52.770;6.892;2022-09-20T08:28:57;5.90;;;2.15;;
52888;SDS011;41413;52.770;6.892;2022-09-20T08:31:25;5.28;;;1.58;;
52888;SDS011;41413;52.770;6.892;2022-09-20T08:33:56;3.33;;;1.63;;
52888;SDS011;41413;52.770;6.892;2022-09-20T08:36:24;2.45;;;2.13;;
52888;SDS011;41413;52.770;6.892;2022-09-20T08:38:51;2.80;;;1.67;;
52888;SDS011;41413;52.770;6.892;2022-09-20T08:41:40;3.80;;;1.85;;
52888;SDS011;41413;52.770;6.892;2022-09-20T08:47:16;4.15;;;2.50;;
52888;SDS011;41413;52.770;6.892;2022-09-20T08:49:47;4.85;;;2.60;;
52888;SDS011;41413;52.770;6.892;2022-09-20T08:52:32;6.68;;;2.05;;
52888;SDS011;41413;52.770;6.892;2022-09-20T08:55:12;3.58;;;1.85;;
52888;SDS011;41413;52.770;6.892;2022-09-20T08:57:51;5.10;;;1.97;;
52888;SDS011;41413;52.770;6.892;2022-09-20T09:00:21;3.97;;;2.13;;
52888;SDS011;41413;52.770;6.892;2022-09-20T09:02:55;5.10;;;2.13;;
52888;SDS011;41413;52.770;6.892;2022-09-20T09:05:34;4.35;;;1.63;;
52888;SDS011;41413;52.770;6.892;2022-09-20T09:08:19;3.28;;;1.65;;
52888;SDS011;41413;52.770;6.892;2022-09-20T09:11:00;3.03;;;1.80;;
52888;SDS011;41413;52.770;6.892;2022-09-20T09:13:43;6.43;;;2.95;;
52888;SDS011;41413;52.770;6.892;2022-09-20T09:16:19;4.70;;;2.33;;
52888;SDS011;41413;52.770;6.892;2022-09-20T09:19:24;4.78;;;1.92;;
52888;SDS011;41413;52.770;6.892;2022-09-20T09:21:59;4.40;;;1.90;;
52888;SDS011;41413;52.770;6.892;2022-09-20T09:24:30;3.45;;;1.80;;
52888;SDS011;41413;52.770;6.892;2022-09-20T09:27:07;2.83;;;1.48;;
52888;SDS011;41413;52.770;6.892;2022-09-20T09:29:54;1.58;;;1.48;;
52888;SDS011;41413;52.770;6.892;2022-09-20T09:32:22;5.65;;;1.30;;
52888;SDS011;41413;52.770;6.892;2022-09-20T09:34:53;4.55;;;1.70;;
52888;SDS011;41413;52.770;6.892;2022-09-20T09:37:22;1.58;;;1.48;;
52888;SDS011;41413;52.770;6.892;2022-09-20T09:40:13;2.88;;;1.33;;
52888;SDS011;41413;52.770;6.892;2022-09-20T09:42:56;1.70;;;1.60;;
52888;SDS011;41413;52.770;6.892;2022-09-20T09:45:34;2.40;;;2.15;;
52888;SDS011;41413;52.770;6.892;2022-09-20T09:51:12;5.70;;;1.85;;
52888;SDS011;41413;52.770;6.892;2022-09-20T09:53:41;4.23;;;2.07;;
52888;SDS011;41413;52.770;6.892;2022-09-20T09:56:15;5.28;;;2.60;;
52888;SDS011;41413;52.770;6.892;2022-09-20T10:02:02;4.88;;;1.63;;
52888;SDS011;41413;52.770;6.892;2022-09-20T10:10:35;1.97;;;1.27;;
52888;SDS011;41413;52.770;6.892;2022-09-20T10:19:00;3.83;;;2.13;;
52888;SDS011;41413;52.770;6.892;2022-09-20T10:30:53;3.22;;;1.88;;
52888;SDS011;41413;52.770;6.892;2022-09-20T10:33:43;1.70;;;1.50;;
52888;SDS011;41413;52.770;6.892;2022-09-20T10:39:39;4.28;;;1.90;;
52888;SDS011;41413;52.770;6.892;2022-09-20T10:46:02;4.82;;;1.27;;
52888;SDS011;41413;52.770;6.892;2022-09-20T10:49:01;3.05;;;1.92;;
52888;SDS011;41413;52.770;6.892;2022-09-20T10:51:53;2.20;;;1.75;;
52888;SDS011;41413;52.770;6.892;2022-09-20T11:02:35;4.32;;;2.22;;
52888;SDS011;41413;52.770;6.892;2022-09-20T11:08:16;3.50;;;2.07;;
52888;SDS011;41413;52.770;6.892;2022-09-20T11:10:49;4.22;;;2.28;;
52888;SDS011;41413;52.770;6.892;2022-09-20T11:13:31;4.72;;;1.95;;
52888;SDS011;41413;52.770;6.892;2022-09-20T11:16:06;4.93;;;2.15;;
52888;SDS011;41413;52.770;6.892;2022-09-20T11:18:47;3.55;;;2.15;;
52888;SDS011;41413;52.770;6.892;2022-09-20T11:21:25;6.57;;;2.63;;
52888;SDS011;41413;52.770;6.892;2022-09-20T11:26:59;2.53;;;1.80;;
52888;SDS011;41413;52.770;6.892;2022-09-20T11:32:10;4.18;;;1.98;;
52888;SDS011;41413;52.770;6.892;2022-09-20T11:34:51;12.55;;;2.35;;
52888;SDS011;41413;52.770;6.892;2022-09-20T11:37:21;5.88;;;2.17;;
52888;SDS011;41413;52.770;6.892;2022-09-20T11:39:55;4.05;;;2.10;;
52888;SDS011;41413;52.770;6.892;2022-09-20T11:42:27;3.10;;;2.15;;
52888;SDS011;41413;52.770;6.892;2022-09-20T11:44:57;2.00;;;1.73;;
52888;SDS011;41413;52.770;6.892;2022-09-20T11:47:25;9.32;;;2.25;;
52888;SDS011;41413;52.770;6.892;2022-09-20T11:56:24;2.38;;;1.70;;
52888;SDS011;41413;52.770;6.892;2022-09-20T11:58:58;7.60;;;2.72;;
52888;SDS011;41413;52.770;6.892;2022-09-20T12:01:33;7.88;;;2.38;;
52888;SDS011;41413;52.770;6.892;2022-09-20T12:04:13;1.77;;;1.63;;
52888;SDS011;41413;52.770;6.892;2022-09-20T12:09:57;5.25;;;2.47;;
52888;SDS011;41413;52.770;6.892;2022-09-20T12:12:41;5.63;;;2.53;;
52888;SDS011;41413;52.770;6.892;2022-09-20T12:15:23;3.30;;;2.10;;
52888;SDS011;41413;52.770;6.892;2022-09-20T12:28:49;3.45;;;1.70;;
52888;SDS011;41413;52.770;6.892;2022-09-20T12:34:01;4.82;;;1.50;;
52888;SDS011;41413;52.770;6.892;2022-09-20T12:36:41;3.97;;;1.73;;
52888;SDS011;41413;52.770;6.892;2022-09-20T12:47:16;6.95;;;2.50;;
52888;SDS011;41413;52.770;6.892;2022-09-20T12:55:48;2.58;;;2.05;;
52888;SDS011;41413;52.770;6.892;2022-09-20T12:58:35;4.88;;;2.47;;
52888;SDS011;41413;52.770;6.892;2022-09-20T13:03:48;4.85;;;2.10;;
52888;SDS011;41413;52.770;6.892;2022-09-20T13:11:18;2.45;;;1.60;;
52888;SDS011;41413;52.770;6.892;2022-09-20T13:13:50;2.15;;;1.42;;
52888;SDS011;41413;52.770;6.892;2022-09-20T13:21:32;2.25;;;1.45;;
52888;SDS011;41413;52.770;6.892;2022-09-20T13:24:03;3.90;;;1.88;;
52888;SDS011;41413;52.770;6.892;2022-09-20T13:26:33;4.97;;;2.30;;
52888;SDS011;41413;52.770;6.892;2022-09-20T13:29:07;9.00;;;2.22;;
52888;SDS011;41413;52.770;6.892;2022-09-20T13:31:44;4.68;;;2.00;;
52888;SDS011;41413;52.770;6.892;2022-09-20T13:34:11;7.22;;;2.30;;
52888;SDS011;41413;52.770;6.892;2022-09-20T13:36:50;4.32;;;1.52;;
52888;SDS011;41413;52.770;6.892;2022-09-20T13:39:22;3.90;;;1.83;;
52888;SDS011;41413;52.770;6.892;2022-09-20T13:41:58;6.78;;;2.58;;
52888;SDS011;41413;52.770;6.892;2022-09-20T13:44:28;3.10;;;2.13;;
52888;SDS011;41413;52.770;6.892;2022-09-20T13:46:59;5.72;;;2.67;;
52888;SDS011;41413;52.770;6.892;2022-09-20T13:49:30;7.72;;;2.50;;
52888;SDS011;41413;52.770;6.892;2022-09-20T13:51:57;2.80;;;1.88;;
52888;SDS011;41413;52.770;6.892;2022-09-20T13:54:28;5.53;;;1.90;;
52888;SDS011;41413;52.770;6.892;2022-09-20T13:56:58;3.25;;;1.77;;
52888;SDS011;41413;52.770;6.892;2022-09-20T13:59:29;4.35;;;1.67;;
52888;SDS011;41413;52.770;6.892;2022-09-20T14:01:59;4.32;;;2.30;;
52888;SDS011;41413;52.770;6.892;2022-09-20T14:04:27;3.05;;;1.85;;
52888;SDS011;41413;52.770;6.892;2022-09-20T14:06:55;8.00;;;2.03;;
52888;SDS011;41413;52.770;6.892;2022-09-20T14:09:27;6.38;;;1.80;;
52888;SDS011;41413;52.770;6.892;2022-09-20T14:11:58;4.20;;;1.60;;
52888;SDS011;41413;52.770;6.892;2022-09-20T14:14:28;2.47;;;1.55;;
52888;SDS011;41413;52.770;6.892;2022-09-20T14:16:56;5.03;;;2.50;;
52888;SDS011;41413;52.770;6.892;2022-09-20T14:19:28;4.57;;;2.35;;
52888;SDS011;41413;52.770;6.892;2022-09-20T14:22:02;2.40;;;1.70;;
52888;SDS011;41413;52.770;6.892;2022-09-20T14:24:30;3.85;;;2.03;;
52888;SDS011;41413;52.770;6.892;2022-09-20T14:27:18;6.22;;;1.80;;
52888;SDS011;41413;52.770;6.892;2022-09-20T14:29:47;4.18;;;1.38;;
52888;SDS011;41413;52.770;6.892;2022-09-20T14:39:53;2.50;;;1.50;;
52888;SDS011;41413;52.770;6.892;2022-09-20T14:42:29;3.55;;;1.60;;
52888;SDS011;41413;52.770;6.892;2022-09-20T14:45:01;4.45;;;2.20;;
52888;SDS011;41413;52.770;6.892;2022-09-20T14:47:37;2.35;;;1.25;;
52888;SDS011;41413;52.770;6.892;2022-09-20T14:50:21;2.72;;;1.67;;
52888;SDS011;41413;52.770;6.892;2022-09-20T14:55:27;2.13;;;1.52;;
52888;SDS011;41413;52.770;6.892;2022-09-20T14:58:06;8.70;;;2.28;;
52888;SDS011;41413;52.770;6.892;2022-09-20T15:00:49;2.20;;;2.05;;
52888;SDS011;41413;52.770;6.892;2022-09-20T15:03:40;2.58;;;1.70;;
52888;SDS011;41413;52.770;6.892;2022-09-20T15:06:10;2.83;;;1.95;;
52888;SDS011;41413;52.770;6.892;2022-09-20T15:08:38;3.10;;;2.10;;
52888;SDS011;41413;52.770;6.892;2022-09-20T15:11:12;4.43;;;1.63;;
52888;SDS011;41413;52.770;6.892;2022-09-20T15:13:39;4.10;;;1.40;;
52888;SDS011;41413;52.770;6.892;2022-09-20T15:16:06;1.88;;;1.67;;
52888;SDS011;41413;52.770;6.892;2022-09-20T15:18:43;3.97;;;1.60;;
52888;SDS011;41413;52.770;6.892;2022-09-20T15:21:10;3.45;;;1.98;;
52888;SDS011;41413;52.770;6.892;2022-09-20T15:23:37;5.07;;;1.98;;
52888;SDS011;41413;52.770;6.892;2022-09-20T15:26:05;2.58;;;1.90;;
52888;SDS011;41413;52.770;6.892;2022-09-20T15:28:32;3.47;;;2.20;;
52888;SDS011;41413;52.770;6.892;2022-09-20T15:30:59;4.15;;;2.30;;
52888;SDS011;41413;52.770;6.892;2022-09-20T15:33:28;3.25;;;1.83;;
52888;SDS011;41413;52.770;6.892;2022-09-20T15:35:56;5.65;;;2.40;;
52888;SDS011;41413;52.770;6.892;2022-09-20T15:38:22;4.20;;;1.83;;
52888;SDS011;41413;52.770;6.892;2022-09-20T15:40:52;6.68;;;2.60;;
52888;SDS011;41413;52.770;6.892;2022-09-20T15:43:19;4.93;;;2.17;;
52888;SDS011;41413;52.770;6.892;2022-09-20T15:45:56;4.32;;;2.05;;
52888;SDS011;41413;52.770;6.892;2022-09-20T15:48:28;4.13;;;1.70;;
52888;SDS011;41413;52.770;6.892;2022-09-20T15:53:37;2.60;;;1.70;;
52888;SDS011;41413;52.770;6.892;2022-09-20T15:56:30;4.20;;;1.97;;
52888;SDS011;41413;52.770;6.892;2022-09-20T15:59:05;4.25;;;1.58;;
52888;SDS011;41413;52.770;6.892;2022-09-20T16:01:43;13.57;;;8.93;;
52888;SDS011;41413;52.770;6.892;2022-09-20T16:04:17;6.97;;;3.75;;
52888;SDS011;41413;52.770;6.892;2022-09-20T16:06:45;4.88;;;2.45;;
52888;SDS011;41413;52.770;6.892;2022-09-20T16:09:14;2.28;;;1.70;;
52888;SDS011;41413;52.770;6.892;2022-09-20T16:11:41;2.17;;;1.70;;
52888;SDS011;41413;52.770;6.892;2022-09-20T16:14:08;3.40;;;1.95;;
52888;SDS011;41413;52.770;6.892;2022-09-20T16:16:34;1.95;;;1.50;;
52888;SDS011;41413;52.770;6.892;2022-09-20T16:19:06;4.78;;;2.55;;
52888;SDS011;41413;52.770;6.892;2022-09-20T16:21:46;5.03;;;3.60;;
52888;SDS011;41413;52.770;6.892;2022-09-20T16:24:22;9.55;;;3.55;;
52888;SDS011;41413;52.770;6.892;2022-09-20T16:26:56;8.82;;;2.88;;
52888;SDS011;41413;52.770;6.892;2022-09-20T16:29:23;9.32;;;4.22;;
52888;SDS011;41413;52.770;6.892;2022-09-20T16:31:51;5.45;;;2.72;;
52888;SDS011;41413;52.770;6.892;2022-09-20T16:34:20;9.93;;;3.45;;
52888;SDS011;41413;52.770;6.892;2022-09-20T16:36:55;4.05;;;2.78;;
52888;SDS011;41413;52.770;6.892;2022-09-20T16:39:35;5.07;;;2.97;;
52888;SDS011;41413;52.770;6.892;2022-09-20T16:42:03;5.65;;;2.58;;
52888;SDS011;41413;52.770;6.892;2022-09-20T16:44:32;4.15;;;3.03;;
52888;SDS011;41413;52.770;6.892;2022-09-20T16:49:51;5.00;;;2.10;;
52888;SDS011;41413;52.770;6.892;2022-09-20T16:52:19;4.22;;;2.38;;
52888;SDS011;41413;52.770;6.892;2022-09-20T16:54:46;4.97;;;2.38;;
52888;SDS011;41413;52.770;6.892;2022-09-20T16:57:12;8.00;;;4.30;;
52888;SDS011;41413;52.770;6.892;2022-09-20T16:59:39;3.80;;;2.83;;
52888;SDS011;41413;52.770;6.892;2022-09-20T17:02:08;4.07;;;3.15;;
52888;SDS011;41413;52.770;6.892;2022-09-20T17:04:36;9.57;;;4.93;;
52888;SDS011;41413;52.770;6.892;2022-09-20T17:07:03;4.32;;;3.05;;
52888;SDS011;41413;52.770;6.892;2022-09-20T17:09:30;4.50;;;3.00;;
52888;SDS011;41413;52.770;6.892;2022-09-20T17:11:57;5.15;;;2.58;;
52888;SDS011;41413;52.770;6.892;2022-09-20T17:14:24;3.83;;;2.40;;
52888;SDS011;41413;52.770;6.892;2022-09-20T17:16:51;4.50;;;2.47;;
52888;SDS011;41413;52.770;6.892;2022-09-20T17:19:18;3.53;;;2.28;;
52888;SDS011;41413;52.770;6.892;2022-09-20T17:21:47;5.68;;;2.78;;
52888;SDS011;41413;52.770;6.892;2022-09-20T17:24:19;3.40;;;1.95;;
52888;SDS011;41413;52.770;6.892;2022-09-20T17:26:46;3.17;;;2.35;;
52888;SDS011;41413;52.770;6.892;2022-09-20T17:29:14;4.22;;;3.83;;
52888;SDS011;41413;52.770;6.892;2022-09-20T17:31:43;4.07;;;3.03;;
52888;SDS011;41413;52.770;6.892;2022-09-20T17:34:16;3.97;;;3.50;;
52888;SDS011;41413;52.770;6.892;2022-09-20T17:36:46;10.57;;;8.20;;
52888;SDS011;41413;52.770;6.892;2022-09-20T17:39:14;20.95;;;12.60;;
52888;SDS011;41413;52.770;6.892;2022-09-20T17:41:42;14.50;;;9.57;;
52888;SDS011;41413;52.770;6.892;2022-09-20T17:44:11;5.47;;;4.30;;
52888;SDS011;41413;52.770;6.892;2022-09-20T17:46:38;7.45;;;3.70;;
52888;SDS011;41413;52.770;6.892;2022-09-20T17:49:07;4.85;;;3.08;;
52888;SDS011;41413;52.770;6.892;2022-09-20T17:51:42;5.32;;;3.30;;
52888;SDS011;41413;52.770;6.892;2022-09-20T17:54:10;6.78;;;4.68;;
52888;SDS011;41413;52.770;6.892;2022-09-20T17:56:39;10.25;;;5.88;;
52888;SDS011;41413;52.770;6.892;2022-09-20T17:59:08;8.20;;;6.07;;
52888;SDS011;41413;52.770;6.892;2022-09-20T18:01:37;4.80;;;4.20;;
52888;SDS011;41413;52.770;6.892;2022-09-20T18:04:05;6.03;;;4.82;;
52888;SDS011;41413;52.770;6.892;2022-09-20T18:06:36;7.22;;;5.65;;
52888;SDS011;41413;52.770;6.892;2022-09-20T18:09:08;6.63;;;5.22;;
52888;SDS011;41413;52.770;6.892;2022-09-20T18:11:37;6.82;;;4.63;;
52888;SDS011;41413;52.770;6.892;2022-09-20T18:14:07;10.55;;;5.40;;
52888;SDS011;41413;52.770;6.892;2022-09-20T18:16:41;7.03;;;6.10;;
52888;SDS011;41413;52.770;6.892;2022-09-20T18:19:09;5.30;;;4.80;;
52888;SDS011;41413;52.770;6.892;2022-09-20T18:21:37;8.90;;;6.00;;
52888;SDS011;41413;52.770;6.892;2022-09-20T18:24:04;8.32;;;6.10;;
52888;SDS011;41413;52.770;6.892;2022-09-20T18:26:33;6.30;;;5.30;;
52888;SDS011;41413;52.770;6.892;2022-09-20T18:29:04;6.93;;;5.07;;
52888;SDS011;41413;52.770;6.892;2022-09-20T18:31:32;5.28;;;4.78;;
52888;SDS011;41413;52.770;6.892;2022-09-20T18:34:17;8.70;;;7.80;;
52888;SDS011;41413;52.770;6.892;2022-09-20T18:36:46;9.77;;;6.50;;
52888;SDS011;41413;52.770;6.892;2022-09-20T18:41:48;5.05;;;3.60;;
52888;SDS011;41413;52.770;6.892;2022-09-20T18:44:15;4.30;;;3.88;;
52888;SDS011;41413;52.770;6.892;2022-09-20T18:46:44;6.07;;;4.00;;
52888;SDS011;41413;52.770;6.892;2022-09-20T18:49:11;9.35;;;3.65;;
52888;SDS011;41413;52.770;6.892;2022-09-20T18:51:40;5.45;;;4.18;;
52888;SDS011;41413;52.770;6.892;2022-09-20T18:54:08;5.32;;;4.18;;
52888;SDS011;41413;52.770;6.892;2022-09-20T18:56:36;5.70;;;5.15;;
52888;SDS011;41413;52.770;6.892;2022-09-20T18:59:05;4.63;;;4.03;;
52888;SDS011;41413;52.770;6.892;2022-09-20T19:09:58;12.98;;;11.82;;
52888;SDS011;41413;52.770;6.892;2022-09-20T19:12:41;14.55;;;12.07;;
52888;SDS011;41413;52.770;6.892;2022-09-20T19:23:06;8.82;;;7.47;;
52888;SDS011;41413;52.770;6.892;2022-09-20T19:26:00;7.25;;;6.45;;
52888;SDS011;41413;52.770;6.892;2022-09-20T19:28:33;8.70;;;6.82;;
52888;SDS011;41413;52.770;6.892;2022-09-20T19:31:01;5.90;;;5.22;;
52888;SDS011;41413;52.770;6.892;2022-09-20T19:33:28;7.88;;;6.13;;
52888;SDS011;41413;52.770;6.892;2022-09-20T19:35:55;5.47;;;5.05;;
52888;SDS011;41413;52.770;6.892;2022-09-20T19:38:44;6.55;;;3.70;;
52888;SDS011;41413;52.770;6.892;2022-09-20T19:44:40;4.18;;;3.78;;
52888;SDS011;41413;52.770;6.892;2022-09-20T19:50:03;3.75;;;3.00;;
52888;SDS011;41413;52.770;6.892;2022-09-20T19:53:00;4.25;;;3.58;;
52888;SDS011;41413;52.770;6.892;2022-09-20T19:55:29;5.15;;;3.67;;
52888;SDS011;41413;52.770;6.892;2022-09-20T19:57:57;5.80;;;3.63;;
52888;SDS011;41413;52.770;6.892;2022-09-20T20:00:24;7.90;;;3.28;;
52888;SDS011;41413;52.770;6.892;2022-09-20T20:02:51;5.45;;;3.55;;
52888;SDS011;41413;52.770;6.892;2022-09-20T20:05:20;4.38;;;3.97;;
52888;SDS011;41413;52.770;6.892;2022-09-20T20:08:06;6.47;;;4.75;;
52888;SDS011;41413;52.770;6.892;2022-09-20T20:16:34;5.15;;;3.35;;
52888;SDS011;41413;52.770;6.892;2022-09-20T20:19:22;5.07;;;3.03;;
52888;SDS011;41413;52.770;6.892;2022-09-20T20:24:54;5.30;;;3.30;;
52888;SDS011;41413;52.770;6.892;2022-09-20T20:27:22;8.85;;;4.57;;
52888;SDS011;41413;52.770;6.892;2022-09-20T20:29:51;4.30;;;3.75;;
52888;SDS011;41413;52.770;6.892;2022-09-20T20:32:17;11.02;;;4.63;;
52888;SDS011;41413;52.770;6.892;2022-09-20T20:34:44;5.30;;;4.53;;
52888;SDS011;41413;52.770;6.892;2022-09-20T20:37:11;4.78;;;3.75;;
52888;SDS011;41413;52.770;6.892;2022-09-20T20:39:39;4.20;;;3.80;;
52888;SDS011;41413;52.770;6.892;2022-09-20T20:42:05;6.20;;;4.45;;
52888;SDS011;41413;52.770;6.892;2022-09-20T20:44:33;6.45;;;5.13;;
52888;SDS011;41413;52.770;6.892;2022-09-20T20:47:00;4.65;;;4.18;;
52888;SDS011;41413;52.770;6.892;2022-09-20T20:49:28;7.65;;;4.38;;
52888;SDS011;41413;52.770;6.892;2022-09-20T20:51:55;5.45;;;4.93;;
52888;SDS011;41413;52.770;6.892;2022-09-20T20:54:23;10.10;;;6.13;;
52888;SDS011;41413;52.770;6.892;2022-09-20T20:56:50;5.30;;;4.68;;
52888;SDS011;41413;52.770;6.892;2022-09-20T20:59:16;6.95;;;5.07;;
52888;SDS011;41413;52.770;6.892;2022-09-20T21:01:43;5.07;;;4.57;;